sensor_id;sensor_type;location;lat;lon;timestamp;pressure;altitude;pressure_sealevel;temperature;humidity
64340;BME280;63709;53.258;-8.814;2023-05-11T00:01:08;101505.28;;;13.64;100.00
64340;BME280;63709;53.258;-8.814;2023-05-11T00:03:37;101501.28;;;13.70;100.00
64340;BME280;63709;53.258;-8.814;2023-05-11T00:06:12;101519.22;;;13.69;100.00
64340;BME280;63709;53.258;-8.814;2023-05-11T00:08:39;101500.94;;;13.74;100.00
64340;BME280;63709;53.258;-8.814;2023-05-11T00:11:08;101514.59;;;13.83;100.00
64340;BME280;63709;53.258;-8.814;2023-05-11T00:13:38;101503.88;;;13.83;100.00
64340;BME280;63709;53.258;-8.814;2023-05-11T00:16:07;101502.66;;;13.87;100.00
64340;BME280;63709;53.258;-8.814;2023-05-11T00:18:33;101517.06;;;13.97;100.00
64340;BME280;63709;53.258;-8.814;2023-05-11T00:21:01;101516.81;;;13.89;100.00
64340;BME280;63709;53.258;-8.814;2023-05-11T00:23:29;101512.28;;;13.78;100.00
64340;BME280;63709;53.258;-8.814;2023-05-11T00:25:58;101513.13;;;13.78;100.00
64340;BME280;63709;53.258;-8.814;2023-05-11T00:28:29;101524.03;;;13.88;100.00
64340;BME280;63709;53.258;-8.814;2023-05-11T00:30:57;101519.88;;;13.95;100.00
64340;BME280;63709;53.258;-8.814;2023-05-11T00:33:24;101520.75;;;13.96;100.00
64340;BME280;63709;53.258;-8.814;2023-05-11T00:35:55;101510.69;;;13.87;100.00
64340;BME280;63709;53.258;-8.814;2023-05-11T00:38:25;101515.50;;;14.06;100.00
64340;BME280;63709;53.258;-8.814;2023-05-11T00:40:54;101521.22;;;14.12;100.00
64340;BME280;63709;53.258;-8.814;2023-05-11T00:43:22;101505.72;;;13.93;100.00
64340;BME280;63709;53.258;-8.814;2023-05-11T00:45:49;101516.38;;;14.06;100.00
64340;BME280;63709;53.258;-8.814;2023-05-11T00:48:27;101520.75;;;14.07;100.00
64340;BME280;63709;53.258;-8.814;2023-05-11T00:51:02;101528.94;;;14.17;100.00
64340;BME280;63709;53.258;-8.814;2023-05-11T00:53:42;101516.13;;;13.98;100.00
64340;BME280;63709;53.258;-8.814;2023-05-11T00:56:26;101527.22;;;14.16;100.00
64340;BME280;63709;53.258;-8.814;2023-05-11T00:58:52;101509.66;;;14.12;100.00
64340;BME280;63709;53.258;-8.814;2023-05-11T01:01:19;101518.06;;;14.18;100.00
64340;BME280;63709;53.258;-8.814;2023-05-11T01:03:49;101511.38;;;14.13;100.00
64340;BME280;63709;53.258;-8.814;2023-05-11T01:06:51;101523.06;;;14.23;100.00
64340;BME280;63709;53.258;-8.814;2023-05-11T01:09:50;101531.75;;;14.15;100.00
64340;BME280;63709;53.258;-8.814;2023-05-11T01:12:29;101541.88;;;14.34;100.00
64340;BME280;63709;53.258;-8.814;2023-05-11T01:15:05;101523.22;;;14.33;100.00
64340;BME280;63709;53.258;-8.814;2023-05-11T01:17:45;101525.75;;;14.23;100.00
64340;BME280;63709;53.258;-8.814;2023-05-11T01:20:21;101517.69;;;14.12;100.00
64340;BME280;63709;53.258;-8.814;2023-05-11T01:23:11;101543.00;;;14.32;100.00
64340;BME280;63709;53.258;-8.814;2023-05-11T01:31:11;101530.81;;;14.50;100.00
64340;BME280;63709;53.258;-8.814;2023-05-11T01:33:45;101535.03;;;14.41;100.00
64340;BME280;63709;53.258;-8.814;2023-05-11T01:36:19;101528.13;;;14.61;100.00
64340;BME280;63709;53.258;-8.814;2023-05-11T01:38:52;101543.34;;;14.72;100.00
64340;BME280;63709;53.258;-8.814;2023-05-11T01:41:19;101525.63;;;14.81;100.00
64340;BME280;63709;53.258;-8.814;2023-05-11T01:44:11;101536.41;;;14.81;100.00
64340;BME280;63709;53.258;-8.814;2023-05-11T01:46:40;101533.47;;;14.84;100.00
64340;BME280;63709;53.258;-8.814;2023-05-11T01:49:09;101533.47;;;14.84;100.00
64340;BME280;63709;53.258;-8.814;2023-05-11T01:51:52;101543.94;;;14.87;100.00
64340;BME280;63709;53.258;-8.814;2023-05-11T01:54:26;101533.31;;;14.85;100.00
64340;BME280;63709;53.258;-8.814;2023-05-11T01:56:57;101532.94;;;14.90;100.00
64340;BME280;63709;53.258;-8.814;2023-05-11T01:59:27;101529.44;;;14.67;100.00
64340;BME280;63709;53.258;-8.814;2023-05-11T02:01:55;101550.44;;;14.84;100.00
64340;BME280;63709;53.258;-8.814;2023-05-11T02:04:24;101532.50;;;14.73;100.00
64340;BME280;63709;53.258;-8.814;2023-05-11T02:06:58;101522.47;;;14.64;100.00
64340;BME280;63709;53.258;-8.814;2023-05-11T02:09:25;101547.88;;;14.60;100.00
64340;BME280;63709;53.258;-8.814;2023-05-11T02:11:53;101565.94;;;14.47;100.00
64340;BME280;63709;53.258;-8.814;2023-05-11T02:14:22;101552.41;;;14.60;100.00
64340;BME280;63709;53.258;-8.814;2023-05-11T02:16:50;101560.59;;;14.58;100.00
64340;BME280;63709;53.258;-8.814;2023-05-11T02:19:24;101565.97;;;14.58;100.00
64340;BME280;63709;53.258;-8.814;2023-05-11T02:21:57;101570.59;;;14.67;100.00
64340;BME280;63709;53.258;-8.814;2023-05-11T02:24:34;101564.00;;;14.60;100.00
64340;BME280;63709;53.258;-8.814;2023-05-11T02:27:01;101567.91;;;14.67;100.00
64340;BME280;63709;53.258;-8.814;2023-05-11T02:29:29;101575.25;;;14.76;100.00
64340;BME280;63709;53.258;-8.814;2023-05-11T02:32:03;101572.34;;;14.68;100.00
64340;BME280;63709;53.258;-8.814;2023-05-11T02:34:48;101583.53;;;14.85;100.00
64340;BME280;63709;53.258;-8.814;2023-05-11T02:37:23;101573.78;;;14.84;100.00
64340;BME280;63709;53.258;-8.814;2023-05-11T02:40:12;101566.44;;;14.63;100.00
64340;BME280;63709;53.258;-8.814;2023-05-11T02:42:41;101595.00;;;14.98;100.00
64340;BME280;63709;53.258;-8.814;2023-05-11T02:45:10;101590.13;;;14.92;100.00
64340;BME280;63709;53.258;-8.814;2023-05-11T02:47:57;101596.72;;;14.99;100.00
64340;BME280;63709;53.258;-8.814;2023-05-11T02:50:30;101588.91;;;14.85;100.00
64340;BME280;63709;53.258;-8.814;2023-05-11T02:53:09;101587.81;;;14.87;100.00
64340;BME280;63709;53.258;-8.814;2023-05-11T02:55:40;101590.00;;;14.93;100.00
64340;BME280;63709;53.258;-8.814;2023-05-11T02:58:09;101582.53;;;14.97;100.00
64340;BME280;63709;53.258;-8.814;2023-05-11T03:00:48;101582.16;;;15.01;100.00
64340;BME280;63709;53.258;-8.814;2023-05-11T03:03:22;101563.97;;;14.94;100.00
64340;BME280;63709;53.258;-8.814;2023-05-11T03:05:48;101581.44;;;14.99;100.00
64340;BME280;63709;53.258;-8.814;2023-05-11T03:08:19;101568.63;;;14.92;100.00
64340;BME280;63709;53.258;-8.814;2023-05-11T03:10:47;101578.63;;;15.01;100.00
64340;BME280;63709;53.258;-8.814;2023-05-11T03:13:15;101580.56;;;15.10;100.00
64340;BME280;63709;53.258;-8.814;2023-05-11T03:16:01;101591.09;;;15.02;100.00
64340;BME280;63709;53.258;-8.814;2023-05-11T03:18:41;101590.81;;;15.05;100.00
64340;BME280;63709;53.258;-8.814;2023-05-11T03:21:22;101586.34;;;15.06;100.00
64340;BME280;63709;53.258;-8.814;2023-05-11T03:23:49;101586.47;;;14.93;100.00
64340;BME280;63709;53.258;-8.814;2023-05-11T03:26:34;101571.81;;;14.86;100.00
64340;BME280;63709;53.258;-8.814;2023-05-11T03:29:16;101569.88;;;14.76;100.00
64340;BME280;63709;53.258;-8.814;2023-05-11T03:31:43;101563.50;;;14.77;100.00
64340;BME280;63709;53.258;-8.814;2023-05-11T03:34:16;101584.41;;;14.85;100.00
64340;BME280;63709;53.258;-8.814;2023-05-11T03:36:44;101590.25;;;14.79;100.00
64340;BME280;63709;53.258;-8.814;2023-05-11T03:39:14;101572.44;;;14.78;100.00
64340;BME280;63709;53.258;-8.814;2023-05-11T03:41:57;101578.41;;;14.82;100.00
64340;BME280;63709;53.258;-8.814;2023-05-11T03:44:25;101546.03;;;14.72;100.00
64340;BME280;63709;53.258;-8.814;2023-05-11T03:46:55;101570.34;;;14.82;100.00
64340;BME280;63709;53.258;-8.814;2023-05-11T03:49:23;101579.25;;;14.82;100.00
64340;BME280;63709;53.258;-8.814;2023-05-11T03:51:50;101581.84;;;14.84;100.00
64340;BME280;63709;53.258;-8.814;2023-05-11T03:54:17;101591.97;;;14.91;100.00
64340;BME280;63709;53.258;-8.814;2023-05-11T03:56:50;101575.13;;;14.78;100.00
64340;BME280;63709;53.258;-8.814;2023-05-11T03:59:17;101595.50;;;14.92;100.00
64340;BME280;63709;53.258;-8.814;2023-05-11T04:01:47;101575.25;;;14.76;100.00
64340;BME280;63709;53.258;-8.814;2023-05-11T04:04:30;101578.41;;;14.70;100.00
64340;BME280;63709;53.258;-8.814;2023-05-11T04:06:56;101593.53;;;14.94;100.00
64340;BME280;63709;53.258;-8.814;2023-05-11T04:09:41;101602.97;;;14.88;100.00
64340;BME280;63709;53.258;-8.814;2023-05-11T04:12:16;101589.78;;;14.85;100.00
64340;BME280;63709;53.258;-8.814;2023-05-11T04:14:43;101603.06;;;14.87;100.00
64340;BME280;63709;53.258;-8.814;2023-05-11T04:17:12;101601.75;;;14.92;100.00
64340;BME280;63709;53.258;-8.814;2023-05-11T04:19:39;101613.72;;;14.88;100.00
64340;BME280;63709;53.258;-8.814;2023-05-11T04:22:07;101596.38;;;14.70;100.00
64340;BME280;63709;53.258;-8.814;2023-05-11T04:24:47;101595.03;;;14.75;100.00
64340;BME280;63709;53.258;-8.814;2023-05-11T04:27:18;101606.50;;;14.77;100.00
64340;BME280;63709;53.258;-8.814;2023-05-11T04:29:52;101600.38;;;14.87;100.00
64340;BME280;63709;53.258;-8.814;2023-05-11T04:32:23;101608.94;;;14.92;100.00
64340;BME280;63709;53.258;-8.814;2023-05-11T04:34:53;101586.34;;;14.72;100.00
64340;BME280;63709;53.258;-8.814;2023-05-11T04:37:23;101605.53;;;14.79;100.00
64340;BME280;63709;53.258;-8.814;2023-05-11T04:39:56;101620.09;;;14.87;100.00
64340;BME280;63709;53.258;-8.814;2023-05-11T04:42:29;101612.63;;;14.91;100.00
64340;BME280;63709;53.258;-8.814;2023-05-11T04:45:05;101603.34;;;14.61;100.00
64340;BME280;63709;53.258;-8.814;2023-05-11T04:47:34;101614.44;;;14.68;100.00
64340;BME280;63709;53.258;-8.814;2023-05-11T04:50:00;101598.22;;;14.69;100.00
64340;BME280;63709;53.258;-8.814;2023-05-11T04:52:33;101622.25;;;14.60;100.00
64340;BME280;63709;53.258;-8.814;2023-05-11T04:54:59;101599.78;;;14.72;100.00
64340;BME280;63709;53.258;-8.814;2023-05-11T04:57:56;101622.78;;;14.76;100.00
64340;BME280;63709;53.258;-8.814;2023-05-11T05:00:22;101617.25;;;14.66;100.00
64340;BME280;63709;53.258;-8.814;2023-05-11T05:02:51;101625.81;;;14.71;100.00
64340;BME280;63709;53.258;-8.814;2023-05-11T05:05:28;101616.78;;;14.61;100.00
64340;BME280;63709;53.258;-8.814;2023-05-11T05:07:56;101625.19;;;14.68;100.00
64340;BME280;63709;53.258;-8.814;2023-05-11T05:10:21;101621.41;;;14.70;100.00
64340;BME280;63709;53.258;-8.814;2023-05-11T05:12:57;101620.56;;;14.81;100.00
64340;BME280;63709;53.258;-8.814;2023-05-11T05:15:24;101634.38;;;14.76;100.00
64340;BME280;63709;53.258;-8.814;2023-05-11T05:17:51;101625.47;;;14.76;100.00
64340;BME280;63709;53.258;-8.814;2023-05-11T05:20:17;101619.81;;;14.79;100.00
64340;BME280;63709;53.258;-8.814;2023-05-11T05:29:23;101627.28;;;14.75;100.00
64340;BME280;63709;53.258;-8.814;2023-05-11T05:35:10;101626.06;;;14.91;100.00
64340;BME280;63709;53.258;-8.814;2023-05-11T05:37:37;101631.69;;;14.88;100.00
64340;BME280;63709;53.258;-8.814;2023-05-11T05:40:07;101632.53;;;14.99;100.00
64340;BME280;63709;53.258;-8.814;2023-05-11T05:42:37;101622.41;;;14.92;100.00
64340;BME280;63709;53.258;-8.814;2023-05-11T05:45:09;101640.81;;;15.08;100.00
64340;BME280;63709;53.258;-8.814;2023-05-11T05:47:40;101633.13;;;15.03;100.00
64340;BME280;63709;53.258;-8.814;2023-05-11T05:50:06;101639.97;;;15.07;100.00
64340;BME280;63709;53.258;-8.814;2023-05-11T05:55:44;101650.34;;;15.12;100.00
64340;BME280;63709;53.258;-8.814;2023-05-11T06:01:32;101649.00;;;15.17;100.00
64340;BME280;63709;53.258;-8.814;2023-05-11T06:04:19;101657.44;;;15.01;100.00
64340;BME280;63709;53.258;-8.814;2023-05-11T06:10:06;101661.47;;;15.18;100.00
64340;BME280;63709;53.258;-8.814;2023-05-11T06:12:33;101650.88;;;15.06;100.00
64340;BME280;63709;53.258;-8.814;2023-05-11T06:15:03;101658.41;;;15.23;100.00
64340;BME280;63709;53.258;-8.814;2023-05-11T06:17:34;101648.03;;;15.07;100.00
64340;BME280;63709;53.258;-8.814;2023-05-11T06:20:05;101652.41;;;15.19;100.00
64340;BME280;63709;53.258;-8.814;2023-05-11T06:22:36;101656.94;;;15.30;100.00
64340;BME280;63709;53.258;-8.814;2023-05-11T06:25:03;101653.13;;;15.33;100.00
64340;BME280;63709;53.258;-8.814;2023-05-11T06:27:33;101668.03;;;15.48;100.00
64340;BME280;63709;53.258;-8.814;2023-05-11T06:30:07;101665.13;;;15.40;100.00
64340;BME280;63709;53.258;-8.814;2023-05-11T06:32:37;101673.44;;;15.37;100.00
64340;BME280;63709;53.258;-8.814;2023-05-11T06:35:18;101667.41;;;15.44;100.00
64340;BME280;63709;53.258;-8.814;2023-05-11T06:40:41;101668.13;;;15.69;100.00
64340;BME280;63709;53.258;-8.814;2023-05-11T06:43:10;101687.88;;;15.79;100.00
64340;BME280;63709;53.258;-8.814;2023-05-11T06:45:48;101684.53;;;15.66;100.00
64340;BME280;63709;53.258;-8.814;2023-05-11T06:48:17;101671.66;;;15.58;100.00
64340;BME280;63709;53.258;-8.814;2023-05-11T06:50:44;101667.84;;;15.61;100.00
64340;BME280;63709;53.258;-8.814;2023-05-11T06:53:10;101695.72;;;15.82;100.00
64340;BME280;63709;53.258;-8.814;2023-05-11T06:55:35;101652.94;;;15.57;100.00
64340;BME280;63709;53.258;-8.814;2023-05-11T06:58:09;101698.41;;;15.82;100.00
64340;BME280;63709;53.258;-8.814;2023-05-11T07:00:34;101679.59;;;15.60;100.00
64340;BME280;63709;53.258;-8.814;2023-05-11T07:03:04;101677.41;;;15.65;100.00
64340;BME280;63709;53.258;-8.814;2023-05-11T07:05:39;101680.22;;;15.75;100.00
64340;BME280;63709;53.258;-8.814;2023-05-11T07:11:26;101656.84;;;15.64;100.00
64340;BME280;63709;53.258;-8.814;2023-05-11T07:14:06;101707.63;;;15.80;100.00
64340;BME280;63709;53.258;-8.814;2023-05-11T07:16:48;101697.59;;;15.59;100.00
64340;BME280;63709;53.258;-8.814;2023-05-11T07:19:17;101708.06;;;15.85;100.00
64340;BME280;63709;53.258;-8.814;2023-05-11T07:21:53;101735.22;;;15.93;100.00
64340;BME280;63709;53.258;-8.814;2023-05-11T07:24:19;101722.59;;;15.93;100.00
64340;BME280;63709;53.258;-8.814;2023-05-11T07:26:53;101731.53;;;15.94;100.00
64340;BME280;63709;53.258;-8.814;2023-05-11T07:36:21;101735.19;;;16.04;100.00
64340;BME280;63709;53.258;-8.814;2023-05-11T07:39:01;101689.09;;;15.86;100.00
64340;BME280;63709;53.258;-8.814;2023-05-11T07:44:48;101689.88;;;16.09;100.00
64340;BME280;63709;53.258;-8.814;2023-05-11T07:47:17;101729.25;;;16.42;100.00
64340;BME280;63709;53.258;-8.814;2023-05-11T07:50:15;101740.91;;;16.43;100.00
64340;BME280;63709;53.258;-8.814;2023-05-11T07:56:12;101689.28;;;16.48;100.00
64340;BME280;63709;53.258;-8.814;2023-05-11T08:02:14;101693.94;;;16.66;100.00
64340;BME280;63709;53.258;-8.814;2023-05-11T08:04:52;101739.47;;;17.11;100.00
64340;BME280;63709;53.258;-8.814;2023-05-11T08:07:34;101735.75;;;17.03;100.00
64340;BME280;63709;53.258;-8.814;2023-05-11T08:10:19;101757.28;;;17.24;100.00
64340;BME280;63709;53.258;-8.814;2023-05-11T08:12:45;101711.47;;;17.03;100.00
64340;BME280;63709;53.258;-8.814;2023-05-11T08:15:16;101759.59;;;17.28;100.00
64340;BME280;63709;53.258;-8.814;2023-05-11T08:17:43;101708.47;;;16.96;100.00
64340;BME280;63709;53.258;-8.814;2023-05-11T08:20:12;101715.63;;;17.07;100.00
64340;BME280;63709;53.258;-8.814;2023-05-11T08:22:47;101742.25;;;17.31;100.00
64340;BME280;63709;53.258;-8.814;2023-05-11T08:25:26;101717.25;;;16.98;100.00
64340;BME280;63709;53.258;-8.814;2023-05-11T08:27:56;101688.50;;;16.78;100.00
64340;BME280;63709;53.258;-8.814;2023-05-11T08:30:52;101771.56;;;17.45;100.00
64340;BME280;63709;53.258;-8.814;2023-05-11T08:33:48;101777.72;;;17.47;100.00
64340;BME280;63709;53.258;-8.814;2023-05-11T08:49:02;101778.91;;;17.33;100.00
64340;BME280;63709;53.258;-8.814;2023-05-11T08:54:59;101762.19;;;17.09;100.00
64340;BME280;63709;53.258;-8.814;2023-05-11T08:57:59;101791.91;;;17.18;100.00
64340;BME280;63709;53.258;-8.814;2023-05-11T09:00:55;101788.34;;;17.49;100.00
64340;BME280;63709;53.258;-8.814;2023-05-11T09:06:57;101790.66;;;17.94;100.00
64340;BME280;63709;53.258;-8.814;2023-05-11T09:09:29;101757.53;;;17.51;100.00
64340;BME280;63709;53.258;-8.814;2023-05-11T09:15:26;101771.16;;;17.40;100.00
64340;BME280;63709;53.258;-8.814;2023-05-11T09:18:07;101788.56;;;17.66;100.00
64340;BME280;63709;53.258;-8.814;2023-05-11T09:20:43;101778.69;;;17.46;100.00
64340;BME280;63709;53.258;-8.814;2023-05-11T09:26:26;101753.41;;;17.47;100.00
64340;BME280;63709;53.258;-8.814;2023-05-11T09:29:01;101723.50;;;17.29;100.00
64340;BME280;63709;53.258;-8.814;2023-05-11T09:31:43;101695.25;;;16.93;100.00
64340;BME280;63709;53.258;-8.814;2023-05-11T09:34:20;101768.66;;;17.58;100.00
64340;BME280;63709;53.258;-8.814;2023-05-11T09:37:15;101739.66;;;17.60;100.00
64340;BME280;63709;53.258;-8.814;2023-05-11T09:39:53;101739.69;;;17.70;100.00
64340;BME280;63709;53.258;-8.814;2023-05-11T09:42:22;101740.34;;;18.02;100.00
64340;BME280;63709;53.258;-8.814;2023-05-11T09:44:47;101777.44;;;18.39;100.00
64340;BME280;63709;53.258;-8.814;2023-05-11T09:47:18;101736.06;;;18.19;100.00
64340;BME280;63709;53.258;-8.814;2023-05-11T09:49:45;101728.81;;;18.10;100.00
64340;BME280;63709;53.258;-8.814;2023-05-11T09:52:13;101714.72;;;18.16;100.00
64340;BME280;63709;53.258;-8.814;2023-05-11T09:54:47;101726.84;;;18.02;100.00
64340;BME280;63709;53.258;-8.814;2023-05-11T09:57:23;101794.25;;;18.33;100.00
64340;BME280;63709;53.258;-8.814;2023-05-11T09:59:49;101787.69;;;17.97;100.00
64340;BME280;63709;53.258;-8.814;2023-05-11T10:04:42;101738.38;;;17.54;100.00
64340;BME280;63709;53.258;-8.814;2023-05-11T10:07:07;101762.94;;;17.61;100.00
64340;BME280;63709;53.258;-8.814;2023-05-11T10:09:33;101759.56;;;17.59;100.00
64340;BME280;63709;53.258;-8.814;2023-05-11T10:11:59;101787.47;;;17.79;100.00
64340;BME280;63709;53.258;-8.814;2023-05-11T10:14:29;101774.97;;;17.78;100.00
64340;BME280;63709;53.258;-8.814;2023-05-11T10:16:59;101796.97;;;18.13;100.00
64340;BME280;63709;53.258;-8.814;2023-05-11T10:19:26;101756.97;;;18.07;100.00
64340;BME280;63709;53.258;-8.814;2023-05-11T10:21:51;101762.97;;;18.21;100.00
64340;BME280;63709;53.258;-8.814;2023-05-11T10:24:19;101718.00;;;18.00;100.00
64340;BME280;63709;53.258;-8.814;2023-05-11T10:26:44;101790.69;;;18.23;100.00
64340;BME280;63709;53.258;-8.814;2023-05-11T10:29:12;101752.44;;;18.37;100.00
64340;BME280;63709;53.258;-8.814;2023-05-11T10:31:39;101759.53;;;18.48;100.00
64340;BME280;63709;53.258;-8.814;2023-05-11T10:34:05;101775.78;;;18.77;100.00
64340;BME280;63709;53.258;-8.814;2023-05-11T10:36:33;101733.91;;;18.71;100.00
64340;BME280;63709;53.258;-8.814;2023-05-11T10:39:00;101780.13;;;18.97;100.00
64340;BME280;63709;53.258;-8.814;2023-05-11T10:41:40;101805.59;;;19.04;100.00
64340;BME280;63709;53.258;-8.814;2023-05-11T11:00:29;101785.84;;;19.31;100.00
64340;BME280;63709;53.258;-8.814;2023-05-11T11:03:10;101779.25;;;19.06;100.00
64340;BME280;63709;53.258;-8.814;2023-05-11T11:05:36;101742.09;;;18.99;100.00
64340;BME280;63709;53.258;-8.814;2023-05-11T11:08:04;101767.53;;;19.16;100.00
64340;BME280;63709;53.258;-8.814;2023-05-11T11:10:37;101794.31;;;19.19;100.00
64340;BME280;63709;53.258;-8.814;2023-05-11T11:13:05;101784.97;;;19.03;100.00
64340;BME280;63709;53.258;-8.814;2023-05-11T11:18:29;101776.19;;;18.62;100.00
64340;BME280;63709;53.258;-8.814;2023-05-11T11:20:57;101762.22;;;18.57;100.00
64340;BME280;63709;53.258;-8.814;2023-05-11T11:23:42;101800.53;;;18.62;100.00
64340;BME280;63709;53.258;-8.814;2023-05-11T11:26:47;101796.53;;;18.67;100.00
64340;BME280;63709;53.258;-8.814;2023-05-11T11:29:14;101765.22;;;18.35;100.00
64340;BME280;63709;53.258;-8.814;2023-05-11T11:35:02;101793.97;;;18.36;100.00
64340;BME280;63709;53.258;-8.814;2023-05-11T11:38:01;101814.59;;;18.37;100.00
64340;BME280;63709;53.258;-8.814;2023-05-11T11:40:48;101809.75;;;18.31;100.00
64340;BME280;63709;53.258;-8.814;2023-05-11T11:43:29;101814.75;;;18.35;100.00
64340;BME280;63709;53.258;-8.814;2023-05-11T11:46:34;101813.59;;;18.38;100.00
64340;BME280;63709;53.258;-8.814;2023-05-11T11:49:14;101762.81;;;18.22;100.00
64340;BME280;63709;53.258;-8.814;2023-05-11T11:55:02;101807.09;;;18.50;100.00
64340;BME280;63709;53.258;-8.814;2023-05-11T12:00:08;101771.63;;;18.24;100.00
64340;BME280;63709;53.258;-8.814;2023-05-11T12:02:58;101768.78;;;18.26;100.00
64340;BME280;63709;53.258;-8.814;2023-05-11T12:06:00;101785.00;;;18.26;100.00
64340;BME280;63709;53.258;-8.814;2023-05-11T12:11:56;101776.03;;;18.35;100.00
64340;BME280;63709;53.258;-8.814;2023-05-11T12:14:27;101815.47;;;18.67;100.00
64340;BME280;63709;53.258;-8.814;2023-05-11T12:17:06;101761.38;;;18.37;100.00
64340;BME280;63709;53.258;-8.814;2023-05-11T12:19:51;101780.84;;;18.60;100.00
64340;BME280;63709;53.258;-8.814;2023-05-11T12:22:35;101773.34;;;18.74;100.00
64340;BME280;63709;53.258;-8.814;2023-05-11T12:25:07;101778.44;;;18.67;100.00
64340;BME280;63709;53.258;-8.814;2023-05-11T12:30:57;101762.94;;;18.79;100.00
64340;BME280;63709;53.258;-8.814;2023-05-11T12:36:45;101759.22;;;18.90;100.00
64340;BME280;63709;53.258;-8.814;2023-05-11T12:43:03;101838.09;;;18.36;100.00
64340;BME280;63709;53.258;-8.814;2023-05-11T12:45:28;101787.94;;;17.94;100.00
64340;BME280;63709;53.258;-8.814;2023-05-11T12:51:44;101826.09;;;18.20;100.00
64340;BME280;63709;53.258;-8.814;2023-05-11T12:57:37;101820.69;;;18.20;100.00
64340;BME280;63709;53.258;-8.814;2023-05-11T13:03:20;101788.56;;;18.46;100.00
64340;BME280;63709;53.258;-8.814;2023-05-11T13:06:05;101823.84;;;18.63;100.00
64340;BME280;63709;53.258;-8.814;2023-05-11T13:08:37;101828.41;;;18.63;100.00
64340;BME280;63709;53.258;-8.814;2023-05-11T13:11:23;101827.28;;;18.56;100.00
64340;BME280;63709;53.258;-8.814;2023-05-11T13:17:27;101828.97;;;18.67;100.00
64340;BME280;63709;53.258;-8.814;2023-05-11T13:19:55;101812.47;;;18.70;100.00
64340;BME280;63709;53.258;-8.814;2023-05-11T13:28:55;101801.66;;;18.89;100.00
64340;BME280;63709;53.258;-8.814;2023-05-11T13:31:25;101810.03;;;18.96;100.00
64340;BME280;63709;53.258;-8.814;2023-05-11T13:33:59;101803.72;;;19.15;100.00
64340;BME280;63709;53.258;-8.814;2023-05-11T13:36:37;101801.66;;;18.89;100.00
64340;BME280;63709;53.258;-8.814;2023-05-11T13:39:11;101813.25;;;19.19;100.00
64340;BME280;63709;53.258;-8.814;2023-05-11T13:41:38;101825.00;;;19.00;100.00
64340;BME280;63709;53.258;-8.814;2023-05-11T13:44:12;101807.34;;;18.96;100.00
64340;BME280;63709;53.258;-8.814;2023-05-11T13:56:19;101796.97;;;18.62;100.00
64340;BME280;63709;53.258;-8.814;2023-05-11T13:58:48;101844.38;;;18.85;100.00
64340;BME280;63709;53.258;-8.814;2023-05-11T14:08:56;101819.72;;;18.59;100.00
64340;BME280;63709;53.258;-8.814;2023-05-11T14:11:24;101816.75;;;18.72;100.00
64340;BME280;63709;53.258;-8.814;2023-05-11T14:13:53;101828.56;;;18.61;100.00
64340;BME280;63709;53.258;-8.814;2023-05-11T14:16:27;101813.59;;;18.57;100.00
64340;BME280;63709;53.258;-8.814;2023-05-11T14:19:16;101857.06;;;18.85;100.00
64340;BME280;63709;53.258;-8.814;2023-05-11T14:25:04;101835.41;;;19.42;100.00
64340;BME280;63709;53.258;-8.814;2023-05-11T14:27:31;101843.53;;;19.42;100.00
64340;BME280;63709;53.258;-8.814;2023-05-11T14:30:04;101864.28;;;19.70;100.00
64340;BME280;63709;53.258;-8.814;2023-05-11T14:32:51;101827.94;;;19.53;100.00
64340;BME280;63709;53.258;-8.814;2023-05-11T14:35:18;101818.63;;;19.75;100.00
64340;BME280;63709;53.258;-8.814;2023-05-11T14:40:36;101859.22;;;19.85;100.00
64340;BME280;63709;53.258;-8.814;2023-05-11T20:56:24;102421.44;;;16.25;100.00
64340;BME280;63709;53.258;-8.814;2023-05-11T20:58:59;102419.22;;;16.06;100.00
64340;BME280;63709;53.258;-8.814;2023-05-11T21:01:25;102439.06;;;15.92;100.00
64340;BME280;63709;53.258;-8.814;2023-05-11T21:03:51;102447.88;;;15.94;100.00
64340;BME280;63709;53.258;-8.814;2023-05-11T21:06:17;102446.81;;;16.09;100.00
64340;BME280;63709;53.258;-8.814;2023-05-11T21:08:43;102453.56;;;16.15;100.00
64340;BME280;63709;53.258;-8.814;2023-05-11T21:11:09;102462.28;;;16.18;100.00
64340;BME280;63709;53.258;-8.814;2023-05-11T21:13:35;102457.34;;;16.12;100.00
64340;BME280;63709;53.258;-8.814;2023-05-11T21:16:02;102460.72;;;16.03;100.00
64340;BME280;63709;53.258;-8.814;2023-05-11T21:18:28;102475.16;;;16.02;100.00
64340;BME280;63709;53.258;-8.814;2023-05-11T21:21:00;102483.31;;;16.01;100.00
64340;BME280;63709;53.258;-8.814;2023-05-11T21:23:27;102478.19;;;15.85;100.00
64340;BME280;63709;53.258;-8.814;2023-05-11T21:25:55;102469.69;;;15.91;100.00
64340;BME280;63709;53.258;-8.814;2023-05-11T21:28:22;102487.31;;;16.08;100.00
64340;BME280;63709;53.258;-8.814;2023-05-11T21:30:50;102475.38;;;15.99;100.00
64340;BME280;63709;53.258;-8.814;2023-05-11T21:33:16;102474.94;;;15.92;100.00
64340;BME280;63709;53.258;-8.814;2023-05-11T21:35:42;102472.47;;;15.89;100.00
64340;BME280;63709;53.258;-8.814;2023-05-11T21:38:12;102486.78;;;15.90;100.00
64340;BME280;63709;53.258;-8.814;2023-05-11T21:40:40;102492.63;;;15.84;100.00
64340;BME280;63709;53.258;-8.814;2023-05-11T21:43:06;102493.78;;;15.67;100.00
64340;BME280;63709;53.258;-8.814;2023-05-11T21:45:33;102476.44;;;15.58;100.00
64340;BME280;63709;53.258;-8.814;2023-05-11T21:47:59;102504.09;;;15.60;100.00
64340;BME280;63709;53.258;-8.814;2023-05-11T21:50:26;102507.50;;;15.37;100.00
64340;BME280;63709;53.258;-8.814;2023-05-11T21:52:56;102496.94;;;15.34;100.00
64340;BME280;63709;53.258;-8.814;2023-05-11T21:55:23;102505.94;;;15.20;100.00